createdAt,value
2019-01-19T00:02:27.189Z,92.80
2019-01-19T00:05:10.885Z,92.70
2019-01-19T00:08:01.270Z,92.70
2019-01-19T00:11:03.619Z,92.80
2019-01-19T00:13:54.881Z,92.80
2019-01-19T00:16:44.829Z,92.80
2019-01-19T00:19:39.317Z,92.80
2019-01-19T00:22:29.069Z,92.90
2019-01-19T00:25:00.880Z,92.70
2019-01-19T00:27:32.730Z,92.70
2019-01-19T00:30:23.729Z,92.70
2019-01-19T00:33:01.685Z,92.70
2019-01-19T00:35:59.001Z,92.70
2019-01-19T00:39:04.701Z,92.80
2019-01-19T00:42:03.495Z,92.80
2019-01-19T00:44:48.013Z,92.80
2019-01-19T00:47:34.238Z,92.70
2019-01-19T00:50:07.710Z,92.80
2019-01-19T00:52:42.198Z,92.80
2019-01-19T00:55:19.169Z,92.80
2019-01-19T00:58:04.393Z,92.80
2019-01-19T01:00:42.309Z,92.90
2019-01-19T01:03:20.291Z,92.90
2019-01-19T01:06:09.357Z,92.80
2019-01-19T01:08:44.274Z,92.90
2019-01-19T01:11:23.153Z,92.90
2019-01-19T01:14:17.773Z,92.90
2019-01-19T01:16:58.702Z,92.80
2019-01-19T01:19:41.034Z,92.80
2019-01-19T01:22:21.711Z,92.80
2019-01-19T01:25:02.126Z,92.80
2019-01-19T01:27:42.629Z,92.80
2019-01-19T01:30:32.841Z,92.70
2019-01-19T01:33:11.542Z,92.70
2019-01-19T01:36:14.631Z,92.80
2019-01-19T01:39:05.509Z,92.70
2019-01-19T01:41:42.958Z,93.20
2019-01-19T01:44:23.777Z,92.70
2019-01-19T01:47:21.405Z,92.70
2019-01-19T01:50:05.700Z,92.80
2019-01-19T01:52:43.033Z,92.80
2019-01-19T01:55:17.129Z,92.70
2019-01-19T01:57:49.002Z,92.70
2019-01-19T02:00:23.965Z,92.80
2019-01-19T02:03:29.710Z,92.90
2019-01-19T02:06:41.328Z,92.90
2019-01-19T02:09:34.696Z,93.20
2019-01-19T02:12:21.528Z,92.70
2019-01-19T02:15:04.492Z,92.80
2019-01-19T02:17:41.937Z,92.80
2019-01-19T02:20:16.409Z,92.90
2019-01-19T02:22:52.678Z,92.90
2019-01-19T02:25:26.976Z,92.90
2019-01-19T02:28:07.486Z,92.90
2019-01-19T02:31:09.849Z,92.90
2019-01-19T02:34:01.970Z,92.90
2019-01-19T02:36:44.932Z,92.90
2019-01-19T02:39:41.118Z,92.80
2019-01-19T02:42:28.034Z,92.80
2019-01-19T02:45:18.249Z,92.80
2019-01-19T02:48:04.390Z,92.80
2019-01-19T02:50:42.967Z,92.80
2019-01-19T02:53:25.857Z,92.80
2019-01-19T02:56:01.776Z,92.80
2019-01-19T02:58:36.479Z,92.80
2019-01-19T03:01:38.598Z,92.90
2019-01-19T03:04:32.816Z,92.80
2019-01-19T03:07:25.928Z,92.80
2019-01-19T03:10:33.384Z,92.80
2019-01-19T03:13:20.572Z,92.70
2019-01-19T03:15:59.621Z,92.70
2019-01-19T03:18:34.010Z,92.70
2019-01-19T03:21:28.288Z,92.80
2019-01-19T03:24:20.913Z,92.80
2019-01-19T03:26:58.379Z,92.70
2019-01-19T03:29:51.131Z,92.70
2019-01-19T03:32:42.430Z,92.70
2019-01-19T03:35:16.662Z,92.80
2019-01-19T03:37:51.206Z,92.80
2019-01-19T03:40:39.285Z,92.80
2019-01-19T03:43:17.118Z,92.80
2019-01-19T03:46:07.905Z,92.70
2019-01-19T03:48:50.762Z,92.80
2019-01-19T03:51:25.317Z,93.10
2019-01-19T03:54:03.520Z,92.70
2019-01-19T03:56:54.370Z,92.70
2019-01-19T03:59:45.453Z,92.80
2019-01-19T04:02:44.122Z,92.80
2019-01-19T04:05:39.627Z,92.80
2019-01-19T04:08:23.358Z,92.90
2019-01-19T04:11:06.253Z,92.90
2019-01-19T04:13:46.670Z,92.80
2019-01-19T04:16:25.548Z,92.80
2019-01-19T04:19:15.098Z,92.80
2019-01-19T04:21:46.947Z,92.80
2019-01-19T04:24:21.000Z,92.80
2019-01-19T04:26:52.249Z,92.80
2019-01-19T04:29:22.923Z,92.80
2019-01-19T04:31:51.790Z,92.80
2019-01-19T04:34:22.497Z,92.80
2019-01-19T04:36:54.435Z,92.80
2019-01-19T04:39:23.446Z,92.90
2019-01-19T04:41:54.541Z,92.90
2019-01-19T04:44:26.579Z,92.90
2019-01-19T04:46:57.858Z,92.90
2019-01-19T04:49:26.737Z,92.90
2019-01-19T04:51:57.126Z,92.90
2019-01-19T04:54:28.121Z,92.90
2019-01-19T04:56:59.939Z,92.80
2019-01-19T04:59:30.094Z,92.80
2019-01-19T05:02:08.305Z,92.80
2019-01-19T05:04:37.206Z,92.80
2019-01-19T05:07:06.070Z,92.80
2019-01-19T05:09:35.573Z,92.80
2019-01-19T05:12:04.482Z,92.80
2019-01-19T05:14:33.341Z,92.70
2019-01-19T05:17:03.641Z,92.70
2019-01-19T05:19:33.985Z,92.70
2019-01-19T05:22:05.655Z,92.70
2019-01-19T05:24:34.553Z,92.70
2019-01-19T05:27:03.421Z,92.70
2019-01-19T05:29:33.914Z,92.70
2019-01-19T05:32:05.298Z,92.70
2019-01-19T05:34:35.557Z,92.70
2019-01-19T05:37:05.992Z,92.60
2019-01-19T05:39:38.335Z,92.60
2019-01-19T05:42:08.565Z,92.60
2019-01-19T05:44:39.593Z,92.70
2019-01-19T05:47:11.190Z,92.60
2019-01-19T05:49:40.068Z,92.60
2019-01-19T05:52:08.964Z,92.60
2019-01-19T05:54:37.834Z,92.60
2019-01-19T05:57:06.747Z,92.60
2019-01-19T05:59:38.201Z,92.60
2019-01-19T06:02:07.105Z,92.60
2019-01-19T06:04:36.013Z,92.60
2019-01-19T06:07:05.088Z,92.60
2019-01-19T06:09:34.938Z,92.60
2019-01-19T06:12:04.151Z,92.60
2019-01-19T06:14:34.532Z,92.60
2019-01-19T06:17:03.397Z,92.60
2019-01-19T06:19:33.691Z,92.60
2019-01-19T06:22:02.895Z,92.60
2019-01-19T06:24:35.094Z,92.60
2019-01-19T06:27:10.216Z,92.60
2019-01-19T06:29:39.073Z,92.60
2019-01-19T06:32:07.983Z,92.60
2019-01-19T06:34:39.843Z,92.60
2019-01-19T06:37:11.717Z,92.50
2019-01-19T06:39:43.938Z,92.50
2019-01-19T06:42:18.370Z,92.50
2019-01-19T06:44:48.698Z,92.50
2019-01-19T06:47:19.165Z,92.50
2019-01-19T06:49:49.841Z,92.60
2019-01-19T06:52:18.758Z,92.50
2019-01-19T06:54:50.474Z,92.50
2019-01-19T06:57:20.042Z,92.50
2019-01-19T06:59:52.984Z,92.50
2019-01-19T07:02:21.854Z,92.50
2019-01-19T07:04:53.381Z,92.50
2019-01-19T07:07:25.034Z,92.40
2019-01-19T07:09:55.414Z,92.40
2019-01-19T07:12:24.274Z,92.40
2019-01-19T07:14:54.437Z,92.50
2019-01-19T07:17:23.954Z,92.40
2019-01-19T07:19:52.810Z,92.80
2019-01-19T07:22:22.327Z,92.30
2019-01-19T07:24:51.193Z,92.30
2019-01-19T07:27:20.730Z,92.40
2019-01-19T07:29:52.192Z,92.40
2019-01-19T07:32:21.090Z,92.30
2019-01-19T07:34:51.533Z,92.30
2019-01-19T07:37:21.438Z,92.40
2019-01-19T07:39:50.344Z,92.30
2019-01-19T07:42:23.794Z,92.30
2019-01-19T07:44:54.166Z,92.30
2019-01-19T07:47:30.889Z,92.30
2019-01-19T07:50:05.204Z,92.30
2019-01-19T07:52:38.681Z,92.20
2019-01-19T07:55:12.410Z,92.30
2019-01-19T07:57:40.953Z,92.20
2019-01-19T08:00:13.926Z,92.30
2019-01-19T08:02:42.860Z,92.30
2019-01-19T08:05:18.430Z,92.30
2019-01-19T08:07:47.289Z,92.10
2019-01-19T08:10:22.152Z,92.20
2019-01-19T08:12:51.185Z,92.20
2019-01-19T08:15:23.314Z,92.20
2019-01-19T08:17:52.256Z,92.20
2019-01-19T08:20:21.156Z,92.20
2019-01-19T08:22:50.205Z,92.10
2019-01-19T08:25:19.662Z,92.10
2019-01-19T08:27:52.449Z,92.10
2019-01-19T08:30:31.809Z,92.10
2019-01-19T08:33:01.130Z,92.00
2019-01-19T08:35:30.465Z,92.10
2019-01-19T08:37:59.362Z,92.10
2019-01-19T08:40:36.096Z,92.00
2019-01-19T08:43:26.604Z,92.00
2019-01-19T08:45:55.827Z,92.10
2019-01-19T08:48:25.206Z,92.10
2019-01-19T08:50:55.164Z,92.10
2019-01-19T08:53:26.264Z,92.00
2019-01-19T08:56:02.489Z,92.00
2019-01-19T08:58:31.177Z,92.00
2019-01-19T09:01:02.373Z,91.90
2019-01-19T09:03:33.313Z,91.80
2019-01-19T09:06:04.942Z,91.60
2019-01-19T09:08:34.169Z,91.50
2019-01-19T09:11:07.113Z,91.50
2019-01-19T09:13:38.879Z,91.40
2019-01-19T09:16:09.257Z,91.30
2019-01-19T09:18:39.666Z,91.60
2019-01-19T09:21:09.762Z,91.40
2019-01-19T09:23:43.084Z,91.00
2019-01-19T09:26:13.462Z,90.90
2019-01-19T09:28:44.919Z,90.80
2019-01-19T09:31:13.832Z,90.80
2019-01-19T09:33:44.375Z,90.80
2019-01-19T09:36:13.277Z,90.70
2019-01-19T09:38:45.942Z,90.70
2019-01-19T09:41:15.145Z,90.60
2019-01-19T09:43:45.265Z,90.60
2019-01-19T09:46:20.217Z,90.50
2019-01-19T09:48:52.946Z,90.40
2019-01-19T09:51:23.786Z,90.40
2019-01-19T09:53:55.838Z,90.30
2019-01-19T09:56:29.002Z,90.00
2019-01-19T09:58:57.900Z,90.00
2019-01-19T10:01:28.835Z,89.90
2019-01-19T10:04:01.741Z,90.00
2019-01-19T10:06:30.625Z,89.40
2019-01-19T10:09:14.382Z,88.90
2019-01-19T10:11:34.087Z,88.70
2019-01-19T10:14:05.033Z,88.90
2019-01-19T10:16:38.502Z,87.50
2019-01-19T10:19:08.710Z,87.20
2019-01-19T10:21:39.415Z,86.90
2019-01-19T10:24:08.309Z,86.70
2019-01-19T10:26:38.275Z,86.40
2019-01-19T10:29:09.761Z,86.40
2019-01-19T10:31:42.368Z,85.80
2019-01-19T10:34:12.249Z,85.70
2019-01-19T10:36:41.150Z,85.40
2019-01-19T10:39:11.702Z,85.30
2019-01-19T10:41:44.137Z,84.90
2019-01-19T10:44:13.352Z,84.60
2019-01-19T10:46:44.959Z,84.30
2019-01-19T10:49:14.813Z,84.00
2019-01-19T10:51:46.806Z,83.60
2019-01-19T10:54:15.664Z,83.10
2019-01-19T10:56:45.579Z,82.70
2019-01-19T10:59:14.445Z,82.30
2019-01-19T11:01:44.747Z,81.90
2019-01-19T11:04:24.165Z,81.40
2019-01-19T11:24:18.188Z,77.80
2019-01-19T11:26:47.064Z,76.40
2019-01-19T11:29:15.953Z,76.10
2019-01-19T11:31:47.208Z,76.00
2019-01-19T11:34:19.541Z,75.40
2019-01-19T11:36:54.614Z,75.30
2019-01-19T11:39:26.933Z,74.40
2019-01-19T11:41:55.797Z,73.30
2019-01-19T11:44:25.905Z,72.80
2019-01-19T11:46:56.338Z,72.40
2019-01-19T11:49:27.527Z,72.20
2019-01-19T11:51:56.392Z,71.90
2019-01-19T11:54:27.404Z,71.60
2019-01-19T11:56:56.309Z,71.20
2019-01-19T11:59:25.171Z,71.20
2019-01-19T12:01:54.072Z,70.90
2019-01-19T12:04:22.919Z,69.70
2019-01-19T12:06:51.831Z,69.30
2019-01-19T12:09:22.600Z,69.00
2019-01-19T12:11:51.512Z,68.80
2019-01-19T12:14:20.371Z,69.20
2019-01-19T12:16:50.743Z,68.10
2019-01-19T12:19:22.262Z,66.80
2019-01-19T12:21:52.628Z,66.40
2019-01-19T12:24:22.077Z,65.20
2019-01-19T12:26:50.981Z,64.50
2019-01-19T12:29:19.847Z,64.20
2019-01-19T12:31:48.750Z,64.00
2019-01-19T12:34:17.612Z,64.30
2019-01-19T12:36:46.513Z,64.30
2019-01-19T12:39:15.359Z,64.20
2019-01-19T12:41:45.765Z,64.10
2019-01-19T12:44:14.624Z,63.80
2019-01-19T12:46:43.526Z,63.20
2019-01-19T12:49:12.976Z,62.50
2019-01-19T12:51:43.277Z,62.20
2019-01-19T12:54:16.200Z,61.80
2019-01-19T12:56:45.096Z,61.60
2019-01-19T12:59:14.989Z,60.90
2019-01-19T13:01:43.896Z,60.40
2019-01-19T13:04:12.756Z,60.30
2019-01-19T13:06:42.948Z,60.00
2019-01-19T13:09:15.249Z,59.90
2019-01-19T13:12:07.017Z,59.30
2019-01-19T13:14:43.538Z,59.30
2019-01-19T13:17:37.358Z,59.10
2019-01-19T13:20:24.081Z,59.20
2019-01-19T13:23:15.440Z,58.60
2019-01-19T13:25:55.572Z,58.60
2019-01-19T13:28:42.760Z,58.90
2019-01-19T13:31:17.241Z,57.90
2019-01-19T13:33:49.084Z,57.90
2019-01-19T13:36:40.553Z,57.50
2019-01-19T13:39:16.145Z,57.60
2019-01-19T13:42:17.144Z,57.60
2019-01-19T13:45:22.728Z,57.00
2019-01-19T13:48:15.180Z,56.50
2019-01-19T13:51:07.305Z,56.50
2019-01-19T13:53:52.962Z,56.30
2019-01-19T13:56:41.307Z,55.80
2019-01-19T13:59:14.580Z,55.30
2019-01-19T14:01:58.493Z,54.80
2019-01-19T14:05:05.722Z,54.20
2019-01-19T14:07:52.380Z,53.80
2019-01-19T14:10:27.880Z,53.10
2019-01-19T14:13:02.497Z,52.40
2019-01-19T14:15:37.330Z,51.90
2019-01-19T14:18:31.289Z,51.60
2019-01-19T14:21:22.611Z,51.40
2019-01-19T14:24:14.400Z,50.90
2019-01-19T14:26:49.936Z,50.60
2019-01-19T14:29:47.460Z,50.20
2019-01-19T14:32:36.750Z,50.30
2019-01-19T14:35:19.819Z,50.30
2019-01-19T14:37:51.650Z,50.30
2019-01-19T14:40:35.463Z,50.40
2019-01-19T14:43:25.225Z,50.40
2019-01-19T14:45:59.620Z,50.40
2019-01-19T14:48:44.741Z,50.40
2019-01-19T14:51:31.782Z,50.50
2019-01-19T14:54:20.728Z,51.10
2019-01-19T14:57:07.487Z,50.80
2019-01-19T14:59:59.955Z,51.10
2019-01-19T15:02:55.786Z,51.10
2019-01-19T15:05:33.361Z,51.20
2019-01-19T15:08:07.921Z,51.00
2019-01-19T15:10:42.310Z,50.50
2019-01-19T15:13:27.358Z,51.00
2019-01-19T15:16:17.401Z,51.50
2019-01-19T15:18:52.113Z,51.60
2019-01-19T15:21:29.560Z,51.80
2019-01-19T15:24:22.741Z,52.40
2019-01-19T15:27:15.369Z,53.10
2019-01-19T15:30:17.099Z,53.70
2019-01-19T15:32:57.856Z,54.20
2019-01-19T15:35:41.674Z,55.30
2019-01-19T15:38:19.322Z,55.30
2019-01-19T15:41:18.163Z,55.70
2019-01-19T15:44:06.234Z,56.00
2019-01-19T15:46:49.551Z,56.60
2019-01-19T15:49:37.701Z,57.00
2019-01-19T15:52:15.668Z,57.30
2019-01-19T15:55:05.078Z,57.50
2019-01-19T15:57:48.609Z,57.90
2019-01-19T16:00:35.488Z,58.10
2019-01-19T16:03:39.225Z,58.20
2019-01-19T16:06:23.433Z,58.30
2019-01-19T16:09:06.591Z,58.80
2019-01-19T16:11:47.099Z,59.00
2019-01-19T16:14:25.896Z,59.30
2019-01-19T16:17:22.144Z,59.50
2019-01-19T16:20:13.514Z,59.60
2019-01-19T16:22:55.449Z,59.80
2019-01-19T16:25:39.148Z,60.00
2019-01-19T16:28:36.592Z,60.50
2019-01-19T16:31:20.572Z,60.60
2019-01-19T16:34:14.777Z,61.00
2019-01-19T16:36:46.617Z,61.30
2019-01-19T16:39:34.956Z,61.60
2019-01-19T16:42:15.545Z,61.90
2019-01-19T16:44:53.196Z,62.10
2019-01-19T16:47:33.865Z,62.30
2019-01-19T16:50:22.544Z,63.30
2019-01-19T16:53:22.840Z,63.70
2019-01-19T16:56:06.706Z,63.70
2019-01-19T16:58:41.230Z,64.00
2019-01-19T17:01:28.224Z,64.20
2019-01-19T17:04:02.635Z,64.50
2019-01-19T17:06:54.548Z,64.60
2019-01-19T17:09:50.121Z,65.00
2019-01-19T17:12:27.575Z,65.20
2019-01-19T17:15:19.525Z,65.40
2019-01-19T17:17:56.942Z,65.70
2019-01-19T17:20:50.072Z,65.90
2019-01-19T17:23:30.686Z,66.10
2019-01-19T17:26:11.679Z,66.20
2019-01-19T17:29:02.992Z,66.30
2019-01-19T17:31:34.839Z,66.50
2019-01-19T17:34:24.677Z,66.80
2019-01-19T17:36:59.073Z,66.80
2019-01-19T17:39:45.680Z,66.80
2019-01-19T17:42:29.412Z,66.80
2019-01-19T17:45:06.317Z,67.40
2019-01-19T17:48:12.999Z,67.70
2019-01-19T17:50:47.649Z,67.90
2019-01-19T17:53:37.613Z,68.40
2019-01-19T17:56:33.447Z,68.70
2019-01-19T17:59:23.192Z,68.70
2019-01-19T18:02:14.529Z,68.90
2019-01-19T18:05:05.905Z,69.10
2019-01-19T18:07:58.658Z,69.20
2019-01-19T18:10:37.414Z,69.30
2019-01-19T18:13:16.882Z,69.40
2019-01-19T18:15:51.857Z,69.00
2019-01-19T18:18:23.701Z,69.70
2019-01-19T18:21:24.290Z,69.80
2019-01-19T18:24:07.632Z,69.90
2019-01-19T18:26:41.729Z,69.90
2019-01-19T18:29:22.469Z,70.20
2019-01-19T18:32:14.815Z,70.40
2019-01-19T18:35:19.548Z,70.60
2019-01-19T18:38:06.284Z,70.80
2019-01-19T18:40:41.136Z,71.00
2019-01-19T18:43:31.305Z,71.30
2019-01-19T18:46:18.685Z,71.30
2019-01-19T18:48:53.298Z,71.70
2019-01-19T18:51:27.589Z,71.90
2019-01-19T18:54:10.421Z,72.10
2019-01-19T18:56:48.359Z,72.30
2019-01-19T18:59:35.021Z,72.40
2019-01-19T19:02:13.004Z,72.50
2019-01-19T19:04:57.263Z,72.70
2019-01-19T19:07:47.535Z,72.70
2019-01-19T19:10:40.406Z,72.80
2019-01-19T19:13:23.645Z,73.00
2019-01-19T19:16:15.902Z,73.10
2019-01-19T19:19:04.857Z,73.20
2019-01-19T19:21:45.405Z,73.40
2019-01-19T19:24:29.070Z,73.70
2019-01-19T19:27:23.409Z,73.80
2019-01-19T19:30:07.406Z,74.20
2019-01-19T19:32:45.234Z,74.30
2019-01-19T19:35:28.616Z,74.50
2019-01-19T19:38:00.464Z,74.70
2019-01-19T19:40:49.016Z,75.00
2019-01-19T19:43:20.856Z,75.20
2019-01-19T19:46:04.389Z,75.30
2019-01-19T19:48:48.307Z,75.50
2019-01-19T19:51:26.765Z,75.60
2019-01-19T19:53:55.642Z,76.00
2019-01-19T19:56:23.320Z,76.00
2019-01-19T19:58:52.180Z,76.10
2019-01-19T20:01:21.444Z,76.40
2019-01-19T20:03:50.394Z,77.50
2019-01-19T20:06:20.860Z,76.90
2019-01-19T20:08:49.816Z,77.10
2019-01-19T20:11:18.718Z,77.20
2019-01-19T20:13:56.480Z,77.30
2019-01-19T20:16:25.397Z,77.50
2019-01-19T20:18:54.321Z,77.70
2019-01-19T20:21:23.176Z,77.80
2019-01-19T20:23:53.276Z,77.90
2019-01-19T20:26:22.146Z,78.10
2019-01-19T20:28:51.036Z,78.40
2019-01-19T20:31:19.925Z,78.30
2019-01-19T20:33:48.969Z,78.40
2019-01-19T20:36:17.846Z,78.70
2019-01-19T20:38:46.707Z,78.90
2019-01-19T20:41:15.617Z,79.10
2019-01-19T20:43:44.486Z,79.20
2019-01-19T20:46:14.093Z,79.20
2019-01-19T20:48:44.256Z,79.20
2019-01-19T20:51:20.845Z,79.20
2019-01-19T20:53:49.724Z,79.40
2019-01-19T20:56:24.424Z,79.50
2019-01-19T20:58:54.366Z,79.60
2019-01-19T21:01:23.277Z,79.80
2019-01-19T21:03:52.146Z,79.80
2019-01-19T21:06:21.053Z,79.80
2019-01-19T21:08:49.921Z,79.90
2019-01-19T21:11:18.781Z,80.10
2019-01-19T21:13:47.695Z,80.20
2019-01-19T21:16:16.558Z,80.20
2019-01-19T21:18:45.466Z,80.40
2019-01-19T21:21:14.332Z,80.50
2019-01-19T21:23:43.233Z,80.70
2019-01-19T21:26:12.145Z,80.90
2019-01-19T21:28:41.036Z,80.90
2019-01-19T21:31:10.265Z,80.90
2019-01-19T21:33:39.179Z,81.00
2019-01-19T21:36:08.042Z,81.00
2019-01-19T21:38:37.290Z,81.10
2019-01-19T21:41:06.152Z,81.20
2019-01-19T21:43:35.065Z,81.20
2019-01-19T21:46:05.088Z,81.20
2019-01-19T21:48:33.960Z,81.30
2019-01-19T21:51:02.880Z,81.30
2019-01-19T21:53:31.756Z,81.50
2019-01-19T21:56:01.124Z,81.40
2019-01-19T21:58:29.999Z,81.60
2019-01-19T22:00:58.901Z,81.60
2019-01-19T22:03:27.757Z,81.80
2019-01-19T22:05:56.685Z,81.90
2019-01-19T22:08:25.682Z,81.90
2019-01-19T22:10:54.584Z,82.10
2019-01-19T22:13:23.441Z,82.10
2019-01-19T22:15:52.355Z,82.20
2019-01-19T22:18:21.262Z,82.20
2019-01-19T22:20:52.145Z,82.20
2019-01-19T22:23:22.281Z,83.10
2019-01-19T22:25:51.172Z,82.40
2019-01-19T22:28:21.233Z,82.60
2019-01-19T22:30:50.103Z,82.70
2019-01-19T22:33:19.505Z,82.80
2019-01-19T22:35:48.369Z,82.80
2019-01-19T22:38:17.273Z,83.00
2019-01-19T22:40:46.138Z,83.10
2019-01-19T22:43:15.037Z,83.10
2019-01-19T22:45:43.892Z,83.20
2019-01-19T22:48:12.798Z,83.30
2019-01-19T22:50:41.665Z,83.20
2019-01-19T22:53:10.531Z,83.30
2019-01-19T22:55:40.025Z,83.30
2019-01-19T22:58:08.897Z,83.50
2019-01-19T23:00:57.270Z,83.60
2019-01-19T23:03:32.468Z,83.70
2019-01-19T23:06:01.369Z,83.70
2019-01-19T23:08:30.242Z,83.70
2019-01-19T23:11:01.345Z,84.00
2019-01-19T23:13:29.653Z,83.90
2019-01-19T23:15:59.579Z,84.80
2019-01-19T23:18:28.404Z,84.10
2019-01-19T23:20:57.317Z,85.00
2019-01-19T23:23:26.181Z,84.30
2019-01-19T23:25:55.090Z,84.40
2019-01-19T23:28:24.931Z,84.60
2019-01-19T23:30:53.828Z,84.60
2019-01-19T23:33:22.732Z,84.60
2019-01-19T23:35:52.887Z,84.80
2019-01-19T23:38:25.077Z,84.90
2019-01-19T23:40:53.946Z,85.00
2019-01-19T23:43:22.841Z,84.80
2019-01-19T23:45:51.701Z,84.90
2019-01-19T23:48:21.660Z,84.90
2019-01-19T23:50:50.528Z,84.80
2019-01-19T23:53:20.878Z,84.70
2019-01-19T23:55:49.737Z,84.80
2019-01-19T23:58:21.391Z,84.70
